Time;durP1;ratioP1;P1;durP2;ratioP2;P2;SDS_P1;SDS_P2;PMS_P1;PMS_P2;Temp;Humidity;BMP_temperature;BMP_pressure;BME280_temperature;BME280_humidity;BME280_pressure;Samples;Min_cycle;Max_cycle;Signal;HPM_P1;HPM_P2
2023/11/01 00:01:12;;;;;;;;;;;19.90;55.10;;;;;;1604075;73;660;-76
2023/11/01 00:03:15;;;;;;;;;;;19.90;55.10;;;;;;1597114;73;1524;-77
2023/11/01 00:05:17;;;;;;;;;;;19.90;55.10;;;;;;1606095;73;1913;-78
2023/11/01 00:07:19;;;;;;;;;;;19.90;55.00;;;;;;1600488;73;699;-77
2023/11/01 00:09:20;;;;;;;;;;;20.00;55.10;;;;;;1598505;73;1160;-77
2023/11/01 00:11:22;;;;;;;;;;;19.90;55.10;;;;;;1599157;73;861;-77
2023/11/01 00:13:24;;;;;;;;;;;19.90;55.10;;;;;;1591031;73;729;-78
2023/11/01 00:15:26;;;;;;;;;;;19.90;55.10;;;;;;1590461;73;701;-77
2023/11/01 00:17:28;;;;;;;;;;;19.90;55.00;;;;;;1596477;73;1528;-77
2023/11/01 00:19:30;;;;;;;;;;;20.00;55.00;;;;;;1607456;73;1191;-77
2023/11/01 00:21:32;;;;;;;;;;;19.90;55.10;;;;;;1607699;73;694;-77
2023/11/01 00:23:34;;;;;;;;;;;19.90;55.10;;;;;;1598039;73;1936;-78
2023/11/01 00:25:36;;;;;;;;;;;19.90;55.10;;;;;;1601151;73;738;-77
2023/11/01 00:27:38;;;;;;;;;;;19.90;55.10;;;;;;1592835;73;752;-77
2023/11/01 00:29:40;;;;;;;;;;;19.90;55.00;;;;;;1600014;73;1139;-78
2023/11/01 00:31:42;;;;;;;;;;;19.90;55.00;;;;;;1595340;73;1557;-77
2023/11/01 00:33:44;;;;;;;;;;;19.90;55.10;;;;;;1600262;73;695;-77
2023/11/01 00:35:46;;;;;;;;;;;19.90;55.10;;;;;;1597759;73;689;-77
2023/11/01 00:37:47;;;;;;;;;;;19.90;55.10;;;;;;1604972;73;717;-76
2023/11/01 00:39:49;;;;;;;;;;;19.90;55.10;;;;;;1589691;73;1204;-77
2023/11/01 00:41:51;;;;;;;;;;;19.90;55.00;;;;;;1598855;73;702;-77
2023/11/01 00:43:53;;;;;;;;;;;19.90;55.00;;;;;;1600205;73;1916;-76
2023/11/01 00:45:55;;;;;;;;;;;19.90;55.00;;;;;;1599485;73;1762;-77
2023/11/01 00:47:57;;;;;;;;;;;19.90;55.00;;;;;;1598525;73;734;-77
2023/11/01 00:49:59;;;;;;;;;;;19.90;55.10;;;;;;1598423;73;1152;-77
2023/11/01 00:52:01;;;;;;;;;;;19.90;55.00;;;;;;1597031;73;703;-78
2023/11/01 00:54:02;;;;;;;;;;;19.90;55.00;;;;;;1601190;73;677;-78
2023/11/01 00:56:05;;;;;;;;;;;20.10;55.20;;;;;;1597414;73;747;-78
2023/11/01 00:58:07;;;;;;;;;;;19.90;55.00;;;;;;1596597;72;731;-77
2023/11/01 01:00:09;;;;;;;;;;;19.90;55.00;;;;;;1606105;72;1579;-78
2023/11/01 01:02:10;;;;;;;;;;;19.90;55.00;;;;;;1600682;73;687;-77
2023/11/01 01:04:12;;;;;;;;;;;19.90;55.00;;;;;;1599671;73;1946;-75
2023/11/01 01:06:14;;;;;;;;;;;19.90;55.00;;;;;;1595481;73;655;-76
2023/11/01 01:08:16;;;;;;;;;;;19.90;55.00;;;;;;1590930;73;742;-76
2023/11/01 01:10:18;;;;;;;;;;;19.90;55.00;;;;;;1592986;73;1072;-77
2023/11/01 01:12:20;;;;;;;;;;;19.90;55.00;;;;;;1589350;73;731;-75
2023/11/01 01:14:22;;;;;;;;;;;19.90;55.00;;;;;;1597661;73;1445;-77
2023/11/01 01:16:23;;;;;;;;;;;19.90;55.00;;;;;;1591424;73;858;-78
2023/11/01 01:18:25;;;;;;;;;;;19.90;55.00;;;;;;1598003;73;687;-77
2023/11/01 01:20:27;;;;;;;;;;;19.90;55.00;;;;;;1590536;73;1167;-77
2023/11/01 01:22:29;;;;;;;;;;;19.90;55.00;;;;;;1595636;73;719;-78
2023/11/01 01:24:31;;;;;;;;;;;19.90;54.90;;;;;;1593488;73;1912;-76
2023/11/01 01:26:33;;;;;;;;;;;19.90;55.00;;;;;;1595501;73;726;-76
2023/11/01 01:28:35;;;;;;;;;;;19.90;55.00;;;;;;1601463;73;1514;-76
2023/11/01 01:30:37;;;;;;;;;;;19.90;55.00;;;;;;1601105;73;1128;-77
2023/11/01 01:32:39;;;;;;;;;;;19.90;54.90;;;;;;1593053;73;841;-77
2023/11/01 01:34:41;;;;;;;;;;;20.10;55.00;;;;;;1594524;72;735;-77
2023/11/01 01:36:43;;;;;;;;;;;19.90;54.90;;;;;;1592357;73;716;-77
2023/11/01 01:38:44;;;;;;;;;;;19.90;55.00;;;;;;1602623;73;796;-77
2023/11/01 01:40:46;;;;;;;;;;;19.90;55.00;;;;;;1596142;73;1140;-77
2023/11/01 01:42:48;;;;;;;;;;;19.90;54.90;;;;;;1581501;72;1580;-77
2023/11/01 01:44:50;;;;;;;;;;;19.90;54.90;;;;;;1604113;73;1941;-76
2023/11/01 01:46:52;;;;;;;;;;;19.90;54.90;;;;;;1589644;73;782;-77
2023/11/01 01:48:54;;;;;;;;;;;19.90;54.90;;;;;;1596658;73;739;-77
2023/11/01 01:50:56;;;;;;;;;;;19.90;54.90;;;;;;1600194;73;1133;-77
2023/11/01 01:52:58;;;;;;;;;;;20.20;55.00;;;;;;1600784;73;725;-75
2023/11/01 01:55:00;;;;;;;;;;;19.90;54.90;;;;;;1603975;73;757;-77
2023/11/01 01:57:02;;;;;;;;;;;19.90;54.90;;;;;;1599414;72;1430;-77
2023/11/01 01:59:04;;;;;;;;;;;19.90;55.00;;;;;;1607889;72;744;-76
2023/11/01 02:01:05;;;;;;;;;;;19.90;54.90;;;;;;1591955;73;1088;-77
2023/11/01 02:03:07;;;;;;;;;;;19.90;54.90;;;;;;1604410;73;640;-77
2023/11/01 02:05:09;;;;;;;;;;;19.90;54.90;;;;;;1597245;73;1936;-78
2023/11/01 02:07:11;;;;;;;;;;;19.90;54.90;;;;;;1603038;73;740;-77
2023/11/01 02:09:17;;;;;;;;;;;19.90;54.90;;;;;;1595518;73;1139;-77
2023/11/01 02:11:17;;;;;;;;;;;19.90;55.00;;;;;;1599501;73;1605;-77
2023/11/01 02:13:18;;;;;;;;;;;20.00;55.00;;;;;;1595931;73;687;-77
2023/11/01 02:15:20;;;;;;;;;;;19.90;54.90;;;;;;1600138;73;631;-77
2023/11/01 02:17:22;;;;;;;;;;;19.90;54.90;;;;;;1592550;73;836;-75
2023/11/01 02:19:24;;;;;;;;;;;19.90;54.90;;;;;;1590338;73;1180;-76
2023/11/01 02:21:26;;;;;;;;;;;19.90;54.80;;;;;;1598913;73;811;-77
2023/11/01 02:23:32;;;;;;;;;;;19.80;54.70;;;;;;1598364;73;747;-77
2023/11/01 02:25:34;;;;;;;;;;;19.80;54.80;;;;;;1600039;73;1938;-77
2023/11/01 02:27:36;;;;;;;;;;;19.90;54.90;;;;;;1600259;73;715;-76
2023/11/01 02:29:38;;;;;;;;;;;19.90;54.90;;;;;;1595666;73;1137;-77
2023/11/01 02:31:41;;;;;;;;;;;19.90;54.90;;;;;;1590153;73;725;-77
2023/11/01 02:33:43;;;;;;;;;;;19.90;54.90;;;;;;1601535;73;721;-77
2023/11/01 02:35:45;;;;;;;;;;;19.90;54.90;;;;;;1605665;73;705;-75
2023/11/01 02:37:50;;;;;;;;;;;19.90;54.90;;;;;;1597366;73;739;-76
2023/11/01 02:39:53;;;;;;;;;;;19.90;54.80;;;;;;1603465;73;1136;-77
2023/11/01 02:41:54;;;;;;;;;;;19.90;54.90;;;;;;1591142;73;718;-77
2023/11/01 02:43:56;;;;;;;;;;;19.90;54.90;;;;;;1596456;73;708;-78
2023/11/01 02:45:58;;;;;;;;;;;19.90;54.80;;;;;;1605236;73;1935;-77
2023/11/01 02:48:00;;;;;;;;;;;19.80;54.80;;;;;;1602992;73;785;-77
2023/11/01 02:50:04;;;;;;;;;;;19.90;54.90;;;;;;1595287;73;1121;-77
2023/11/01 02:52:06;;;;;;;;;;;19.80;54.70;;;;;;1597216;73;1516;-77
2023/11/01 02:54:07;;;;;;;;;;;19.90;54.90;;;;;;1599124;72;725;-77
2023/11/01 02:56:10;;;;;;;;;;;19.90;54.90;;;;;;1595616;72;690;-76
2023/11/01 02:58:12;;;;;;;;;;;19.90;54.90;;;;;;1591546;72;671;-77
2023/11/01 03:00:19;;;;;;;;;;;19.90;54.90;;;;;;1593729;72;1147;-77
2023/11/01 03:02:21;;;;;;;;;;;19.90;54.90;;;;;;1584865;73;800;-76
2023/11/01 03:04:23;;;;;;;;;;;19.90;54.90;;;;;;1604396;73;728;-76
2023/11/01 03:06:25;;;;;;;;;;;19.90;54.90;;;;;;1591625;73;1943;-77
2023/11/01 03:08:27;;;;;;;;;;;19.80;54.90;;;;;;1596613;73;739;-77
2023/11/01 03:10:29;;;;;;;;;;;19.80;54.80;;;;;;1594494;73;1146;-77
2023/11/01 03:12:31;;;;;;;;;;;19.80;54.80;;;;;;1590761;73;716;-77
2023/11/01 03:14:32;;;;;;;;;;;19.90;54.90;;;;;;1603106;73;621;-76
2023/11/01 03:16:36;;;;;;;;;;;19.90;54.90;;;;;;1600238;73;748;-77
2023/11/01 03:18:37;;;;;;;;;;;19.90;54.90;;;;;;1600972;73;773;-77
2023/11/01 03:20:39;;;;;;;;;;;19.90;55.00;;;;;;1603299;73;1614;-78
2023/11/01 03:22:41;;;;;;;;;;;19.80;54.80;;;;;;1605736;72;611;-76
2023/11/01 03:24:43;;;;;;;;;;;19.90;55.00;;;;;;1602522;72;1948;-76
2023/11/01 03:26:45;;;;;;;;;;;19.80;54.80;;;;;;1599332;72;720;-76
2023/11/01 03:28:47;;;;;;;;;;;19.90;55.00;;;;;;1596034;72;744;-78
2023/11/01 03:30:49;;;;;;;;;;;19.80;54.90;;;;;;1601872;73;1123;-77
2023/11/01 03:32:51;;;;;;;;;;;19.80;54.90;;;;;;1595015;73;736;-77
2023/11/01 03:34:53;;;;;;;;;;;19.90;55.00;;;;;;1599686;72;1563;-76
2023/11/01 03:36:54;;;;;;;;;;;19.90;55.00;;;;;;1607207;72;715;-77
2023/11/01 03:38:56;;;;;;;;;;;19.90;55.00;;;;;;1595380;73;655;-78
2023/11/01 03:40:59;;;;;;;;;;;19.90;55.00;;;;;;1610825;72;1127;-77
2023/11/01 03:43:01;;;;;;;;;;;19.80;54.90;;;;;;1600496;72;735;-77
2023/11/01 03:45:03;;;;;;;;;;;19.90;55.00;;;;;;1605381;72;1933;-78
2023/11/01 03:47:04;;;;;;;;;;;19.90;55.00;;;;;;1595325;72;763;-76
2023/11/01 03:49:06;;;;;;;;;;;19.80;55.00;;;;;;1605136;72;1565;-76
2023/11/01 03:51:08;;;;;;;;;;;19.90;55.00;;;;;;1602317;73;1107;-76
2023/11/01 03:53:10;;;;;;;;;;;19.80;54.90;;;;;;1601151;73;678;-77
2023/11/01 03:55:13;;;;;;;;;;;19.90;55.00;;;;;;1597584;73;693;-77
2023/11/01 03:57:14;;;;;;;;;;;19.90;55.10;;;;;;1605960;73;758;-77
2023/11/01 03:59:16;;;;;;;;;;;19.90;55.10;;;;;;1585270;73;1174;-76
2023/11/01 04:01:19;;;;;;;;;;;19.90;55.00;;;;;;1601396;73;793;-76
2023/11/01 04:03:21;;;;;;;;;;;19.80;55.00;;;;;;1587001;73;1569;-77
2023/11/01 04:05:23;;;;;;;;;;;19.90;55.10;;;;;;1602211;73;1929;-77
2023/11/01 04:07:25;;;;;;;;;;;19.80;55.00;;;;;;1596725;73;747;-75
2023/11/01 04:09:27;;;;;;;;;;;19.90;55.10;;;;;;1598775;72;1193;-77
2023/11/01 04:11:29;;;;;;;;;;;19.90;55.00;;;;;;1604258;73;710;-77
2023/11/01 04:13:35;;;;;;;;;;;19.90;55.00;;;;;;1598661;73;671;-77
2023/11/01 04:15:34;;;;;;;;;;;19.90;55.10;;;;;;1596628;73;977;-77
2023/11/01 04:17:36;;;;;;;;;;;19.90;55.10;;;;;;1604216;73;1455;-76
2023/11/01 04:19:38;;;;;;;;;;;19.90;55.10;;;;;;1600801;73;1192;-77
2023/11/01 04:21:40;;;;;;;;;;;19.90;55.10;;;;;;1583982;73;705;-77
2023/11/01 04:23:42;;;;;;;;;;;19.90;55.10;;;;;;1595695;73;787;-78
2023/11/01 04:25:43;;;;;;;;;;;19.90;55.10;;;;;;1604777;73;1960;-77
2023/11/01 04:27:45;;;;;;;;;;;19.90;55.10;;;;;;1599831;73;792;-78
2023/11/01 04:29:47;;;;;;;;;;;19.90;55.10;;;;;;1604338;73;1130;-77
2023/11/01 04:31:52;;;;;;;;;;;19.90;55.00;;;;;;1600581;72;1661;-77
2023/11/01 04:33:53;;;;;;;;;;;19.90;55.00;;;;;;1605463;73;1042;-77
2023/11/01 04:35:55;;;;;;;;;;;19.90;55.00;;;;;;1603468;73;733;-78
2023/11/01 04:37:56;;;;;;;;;;;19.90;55.10;;;;;;1605272;73;678;-76
2023/11/01 04:39:58;;;;;;;;;;;19.80;55.00;;;;;;1606328;73;1132;-77
2023/11/01 04:42:04;;;;;;;;;;;19.90;55.00;;;;;;1598051;73;727;-75
2023/11/01 04:44:04;;;;;;;;;;;19.80;55.00;;;;;;1604448;73;1010;-77
2023/11/01 04:46:06;;;;;;;;;;;19.90;55.00;;;;;;1605607;73;1933;-77
2023/11/01 04:48:07;;;;;;;;;;;19.80;54.90;;;;;;1603136;73;715;-76
2023/11/01 04:50:10;;;;;;;;;;;19.90;55.10;;;;;;1595470;73;1143;-76
2023/11/01 04:52:11;;;;;;;;;;;19.80;55.00;;;;;;1603223;73;706;-77
2023/11/01 04:54:13;;;;;;;;;;;19.80;55.00;;;;;;1598766;72;865;-77
2023/11/01 04:56:15;;;;;;;;;;;19.80;55.00;;;;;;1605798;73;729;-78
2023/11/01 04:58:17;;;;;;;;;;;19.90;55.00;;;;;;1604634;73;708;-76
2023/11/01 05:00:19;;;;;;;;;;;19.90;55.00;;;;;;1600920;73;1557;-76
2023/11/01 05:02:21;;;;;;;;;;;19.80;55.00;;;;;;1593866;73;681;-76
2023/11/01 05:04:23;;;;;;;;;;;19.80;55.00;;;;;;1602474;73;800;-78
2023/11/01 05:06:26;;;;;;;;;;;19.90;55.10;;;;;;1601854;73;1928;-77
2023/11/01 05:08:28;;;;;;;;;;;19.90;55.00;;;;;;1597958;73;721;-77
2023/11/01 05:10:30;;;;;;;;;;;20.00;55.00;;;;;;1592545;73;1117;-77
2023/11/01 05:12:32;;;;;;;;;;;19.80;55.00;;;;;;1602877;73;661;-78
2023/11/01 05:14:34;;;;;;;;;;;19.90;55.10;;;;;;1598056;73;1868;-77
2023/11/01 05:16:36;;;;;;;;;;;19.80;55.00;;;;;;1605429;73;701;-77
2023/11/01 05:18:37;;;;;;;;;;;19.80;55.00;;;;;;1600062;73;710;-78
2023/11/01 05:20:39;;;;;;;;;;;19.80;55.00;;;;;;1601058;72;1201;-77
2023/11/01 05:22:41;;;;;;;;;;;19.80;55.00;;;;;;1599326;73;712;-78
2023/11/01 05:24:52;;;;;;;;;;;19.80;55.00;;;;;;1602755;73;723;-77
2023/11/01 05:26:54;;;;;;;;;;;19.90;55.00;;;;;;1601233;72;1922;-77
2023/11/01 05:28:59;;;;;;;;;;;19.90;55.00;;;;;;1601638;73;763;-78
2023/11/01 05:31:01;;;;;;;;;;;19.90;55.00;;;;;;1598333;73;1121;-77
2023/11/01 05:33:03;;;;;;;;;;;19.80;54.90;;;;;;1598658;72;775;-77
2023/11/01 05:35:05;;;;;;;;;;;19.90;55.00;;;;;;1600608;73;701;-76
2023/11/01 05:37:09;;;;;;;;;;;19.80;54.90;;;;;;1595771;73;728;-78
2023/11/01 05:39:10;;;;;;;;;;;19.90;55.00;;;;;;1590462;73;1113;-77
2023/11/01 05:41:12;;;;;;;;;;;19.90;55.00;;;;;;1602866;73;1345;-76
2023/11/01 05:43:14;;;;;;;;;;;19.80;54.90;;;;;;1606823;73;684;-77
2023/11/01 05:45:16;;;;;;;;;;;19.80;54.90;;;;;;1589470;73;671;-77
2023/11/01 05:47:18;;;;;;;;;;;19.80;54.90;;;;;;1596394;72;1914;-76
2023/11/01 05:49:20;;;;;;;;;;;19.80;54.90;;;;;;1601992;72;1151;-76
2023/11/01 05:51:22;;;;;;;;;;;19.80;54.90;;;;;;1592023;72;822;-77
2023/11/01 05:53:24;;;;;;;;;;;19.80;55.00;;;;;;1605361;73;728;-78
2023/11/01 05:55:26;;;;;;;;;;;19.80;55.00;;;;;;1600052;73;1539;-76
2023/11/01 05:57:28;;;;;;;;;;;19.90;55.00;;;;;;1600443;73;715;-78
2023/11/01 05:59:30;;;;;;;;;;;19.80;54.90;;;;;;1600918;73;1161;-77
2023/11/01 06:01:32;;;;;;;;;;;19.80;54.90;;;;;;1602109;72;604;-77
2023/11/01 06:03:33;;;;;;;;;;;19.80;54.90;;;;;;1597289;73;727;-77
2023/11/01 06:05:35;;;;;;;;;;;19.80;54.90;;;;;;1599002;72;1936;-77
2023/11/01 06:07:37;;;;;;;;;;;19.90;55.00;;;;;;1604171;72;724;-77
2023/11/01 06:09:39;;;;;;;;;;;19.80;54.90;;;;;;1590092;73;1604;-77
2023/11/01 06:11:43;;;;;;;;;;;19.80;54.90;;;;;;1604951;73;733;-78
2023/11/01 06:13:44;;;;;;;;;;;19.80;54.90;;;;;;1599632;73;683;-76
2023/11/01 06:15:48;;;;;;;;;;;19.80;54.90;;;;;;1598117;73;769;-77
2023/11/01 06:17:50;;;;;;;;;;;19.90;55.00;;;;;;1595317;73;721;-77
2023/11/01 06:19:52;;;;;;;;;;;19.80;54.80;;;;;;1600541;73;1132;-77
2023/11/01 06:21:54;;;;;;;;;;;19.80;54.90;;;;;;1591660;73;732;-76
2023/11/01 06:23:55;;;;;;;;;;;19.80;54.90;;;;;;1599024;73;1463;-76
2023/11/01 06:25:58;;;;;;;;;;;19.80;54.90;;;;;;1600329;73;1949;-78
2023/11/01 06:28:00;;;;;;;;;;;19.80;54.90;;;;;;1604112;72;763;-77
2023/11/01 06:30:04;;;;;;;;;;;19.90;55.00;;;;;;1606343;73;1183;-77
2023/11/01 06:32:06;;;;;;;;;;;19.80;54.90;;;;;;1606986;73;1432;-77
2023/11/01 06:34:08;;;;;;;;;;;19.80;54.90;;;;;;1585761;73;577;-77
2023/11/01 06:36:10;;;;;;;;;;;19.90;55.00;;;;;;1595215;72;631;-77
2023/11/01 06:38:12;;;;;;;;;;;19.80;54.80;;;;;;1601051;72;1417;-76
2023/11/01 06:40:14;;;;;;;;;;;19.80;54.80;;;;;;1594743;73;1145;-77
2023/11/01 06:42:16;;;;;;;;;;;19.90;54.90;;;;;;1601737;73;700;-77
2023/11/01 06:44:19;;;;;;;;;;;19.80;54.80;;;;;;1598501;72;691;-77
2023/11/01 06:46:22;;;;;;;;;;;20.00;54.90;;;;;;1592595;73;1915;-77
2023/11/01 06:48:24;;;;;;;;;;;19.80;54.80;;;;;;1606247;73;853;-76
2023/11/01 06:50:26;;;;;;;;;;;19.90;54.90;;;;;;1601394;73;1135;-78
2023/11/01 06:52:27;;;;;;;;;;;19.80;54.70;;;;;;1599686;73;1571;-77
2023/11/01 06:54:29;;;;;;;;;;;19.90;55.00;;;;;;1606914;73;679;-77
2023/11/01 06:56:31;;;;;;;;;;;19.80;54.80;;;;;;1599061;73;707;-74
2023/11/01 06:58:33;;;;;;;;;;;19.80;54.80;;;;;;1595598;73;720;-77
2023/11/01 07:00:35;;;;;;;;;;;19.80;54.80;;;;;;1602657;72;1101;-77
2023/11/01 07:02:37;;;;;;;;;;;19.90;54.90;;;;;;1601557;73;783;-78
2023/11/01 07:04:39;;;;;;;;;;;19.90;54.90;;;;;;1602061;73;577;-77
2023/11/01 07:06:44;;;;;;;;;;;19.80;54.80;;;;;;1600353;73;1939;-78
2023/11/01 07:08:46;;;;;;;;;;;19.90;54.90;;;;;;1598567;73;751;-76
2023/11/01 07:10:48;;;;;;;;;;;19.90;54.90;;;;;;1601420;73;1100;-78
2023/11/01 07:12:50;;;;;;;;;;;19.80;54.80;;;;;;1601984;73;716;-78
2023/11/01 07:14:52;;;;;;;;;;;19.90;55.00;;;;;;1598967;73;705;-77
2023/11/01 07:16:54;;;;;;;;;;;19.90;54.90;;;;;;1595398;73;728;-77
2023/11/01 07:18:57;;;;;;;;;;;19.90;55.00;;;;;;1589028;72;730;-77
2023/11/01 07:20:59;;;;;;;;;;;19.80;54.80;;;;;;1605712;73;1559;-77
2023/11/01 07:23:01;;;;;;;;;;;19.80;54.90;;;;;;1601763;73;795;-76
2023/11/01 07:25:04;;;;;;;;;;;19.80;54.80;;;;;;1604151;73;765;-77
2023/11/01 07:27:06;;;;;;;;;;;19.90;54.90;;;;;;1600729;72;1920;-76
2023/11/01 07:29:08;;;;;;;;;;;19.80;54.80;;;;;;1604051;73;736;-77
2023/11/01 07:31:09;;;;;;;;;;;19.80;54.80;;;;;;1599264;73;1115;-77
2023/11/01 07:33:12;;;;;;;;;;;19.80;54.80;;;;;;1589097;73;662;-77
2023/11/01 07:35:14;;;;;;;;;;;19.80;54.80;;;;;;1597722;73;721;-76
2023/11/01 07:37:16;;;;;;;;;;;19.80;54.80;;;;;;1593347;73;714;-76
2023/11/01 07:39:18;;;;;;;;;;;19.80;54.80;;;;;;1602386;73;1175;-76
2023/11/01 07:41:20;;;;;;;;;;;19.80;54.80;;;;;;1597868;73;676;-77
2023/11/01 07:43:22;;;;;;;;;;;19.80;54.80;;;;;;1595235;73;883;-77
2023/11/01 07:45:24;;;;;;;;;;;19.80;54.80;;;;;;1599512;73;713;-78
2023/11/01 07:47:26;;;;;;;;;;;19.80;54.80;;;;;;1601003;73;1928;-78
2023/11/01 07:49:28;;;;;;;;;;;19.80;54.80;;;;;;1601654;72;1117;-77
2023/11/01 07:51:30;;;;;;;;;;;19.80;54.80;;;;;;1605536;72;701;-77
2023/11/01 07:53:32;;;;;;;;;;;19.80;54.80;;;;;;1595913;72;793;-77
2023/11/01 07:55:34;;;;;;;;;;;19.80;54.70;;;;;;1597889;72;716;-75
2023/11/01 07:57:36;;;;;;;;;;;19.80;54.70;;;;;;1601547;73;854;-77
2023/11/01 07:59:38;;;;;;;;;;;19.80;54.80;;;;;;1594344;73;1168;-78
2023/11/01 08:01:41;;;;;;;;;;;19.80;54.70;;;;;;1599528;73;1566;-77
2023/11/01 08:03:42;;;;;;;;;;;19.90;54.80;;;;;;1604855;73;689;-77
2023/11/01 08:05:44;;;;;;;;;;;19.80;54.70;;;;;;1592594;73;744;-77
2023/11/01 08:07:46;;;;;;;;;;;19.80;54.70;;;;;;1606856;73;1928;-76
2023/11/01 08:09:48;;;;;;;;;;;19.80;54.70;;;;;;1603879;73;1142;-78
2023/11/01 08:11:50;;;;;;;;;;;19.80;54.70;;;;;;1597526;73;726;-77
2023/11/01 08:13:52;;;;;;;;;;;19.90;54.70;;;;;;1606202;73;719;-77
2023/11/01 08:15:54;;;;;;;;;;;19.80;54.70;;;;;;1605413;73;1546;-78
2023/11/01 08:17:56;;;;;;;;;;;19.80;54.70;;;;;;1598636;73;654;-77
2023/11/01 08:19:58;;;;;;;;;;;19.80;54.70;;;;;;1599124;73;1106;-77
2023/11/01 08:22:00;;;;;;;;;;;19.80;54.70;;;;;;1601031;73;737;-78
2023/11/01 08:24:02;;;;;;;;;;;19.80;54.70;;;;;;1607972;73;732;-77
2023/11/01 08:26:05;;;;;;;;;;;19.80;54.70;;;;;;1596402;73;719;-77
2023/11/01 08:28:06;;;;;;;;;;;19.90;54.70;;;;;;1602083;73;1904;-76
2023/11/01 08:30:09;;;;;;;;;;;19.80;54.60;;;;;;1598915;73;1348;-76
2023/11/01 08:32:11;;;;;;;;;;;19.80;54.70;;;;;;1598708;72;722;-77
2023/11/01 08:34:12;;;;;;;;;;;19.80;54.60;;;;;;1596989;73;744;-77
2023/11/01 08:36:14;;;;;;;;;;;19.90;54.70;;;;;;1593974;73;757;-78
2023/11/01 08:38:16;;;;;;;;;;;19.90;54.70;;;;;;1598147;73;719;-77
2023/11/01 08:40:18;;;;;;;;;;;19.80;54.70;;;;;;1596624;73;1175;-77
2023/11/01 08:42:20;;;;;;;;;;;19.80;54.50;;;;;;1606011;73;693;-77
2023/11/01 08:44:22;;;;;;;;;;;19.90;54.70;;;;;;1591789;73;1539;-78
2023/11/01 08:46:24;;;;;;;;;;;19.80;54.70;;;;;;1606668;73;790;-77
2023/11/01 08:48:26;;;;;;;;;;;19.90;54.70;;;;;;1598135;73;1957;-76
2023/11/01 08:50:27;;;;;;;;;;;19.90;54.70;;;;;;1599764;73;1148;-77
2023/11/01 08:52:32;;;;;;;;;;;19.90;54.70;;;;;;1602797;73;529;-78
2023/11/01 08:54:33;;;;;;;;;;;19.90;54.70;;;;;;1598714;73;1150;-77
2023/11/01 08:56:36;;;;;;;;;;;19.90;54.70;;;;;;1603805;73;733;-77
2023/11/01 08:58:38;;;;;;;;;;;19.90;54.70;;;;;;1608142;73;1479;-77
2023/11/01 09:00:41;;;;;;;;;;;19.80;54.70;;;;;;1593716;72;1110;-78
2023/11/01 09:02:42;;;;;;;;;;;19.90;54.70;;;;;;1590670;73;707;-77
2023/11/01 09:04:44;;;;;;;;;;;19.90;54.70;;;;;;1597157;73;596;-77
2023/11/01 09:06:46;;;;;;;;;;;19.90;54.70;;;;;;1598228;73;1944;-77
2023/11/01 09:08:48;;;;;;;;;;;19.90;54.70;;;;;;1610349;73;802;-77
2023/11/01 09:10:50;;;;;;;;;;;19.90;54.70;;;;;;1592243;73;1147;-77
2023/11/01 09:12:52;;;;;;;;;;;19.90;54.70;;;;;;1602355;73;1446;-77
2023/11/01 09:14:54;;;;;;;;;;;19.90;54.70;;;;;;1602141;73;736;-77
2023/11/01 09:16:56;;;;;;;;;;;20.30;54.90;;;;;;1604274;73;859;-78
2023/11/01 09:18:58;;;;;;;;;;;19.90;54.70;;;;;;1599849;73;769;-77
2023/11/01 09:21:00;;;;;;;;;;;19.90;54.70;;;;;;1596927;73;1113;-78
2023/11/01 09:23:02;;;;;;;;;;;19.90;54.70;;;;;;1601478;73;722;-77
2023/11/01 09:25:04;;;;;;;;;;;19.80;54.50;;;;;;1599287;73;699;-76
2023/11/01 09:27:06;;;;;;;;;;;19.90;54.70;;;;;;1601648;72;1942;-77
2023/11/01 09:29:08;;;;;;;;;;;19.90;54.70;;;;;;1605539;73;774;-77
2023/11/01 09:31:10;;;;;;;;;;;19.90;54.70;;;;;;1598658;73;1088;-76
2023/11/01 09:33:12;;;;;;;;;;;19.90;54.70;;;;;;1589101;72;798;-76
2023/11/01 09:35:14;;;;;;;;;;;19.90;54.70;;;;;;1604601;73;590;-75
2023/11/01 09:37:16;;;;;;;;;;;19.90;54.70;;;;;;1590325;73;724;-78
2023/11/01 09:39:18;;;;;;;;;;;19.90;54.70;;;;;;1602242;73;1215;-78
2023/11/01 09:41:21;;;;;;;;;;;19.90;54.70;;;;;;1594234;72;1450;-77
2023/11/01 09:43:23;;;;;;;;;;;19.90;54.60;;;;;;1588665;73;931;-77
2023/11/01 09:45:25;;;;;;;;;;;19.90;54.60;;;;;;1601882;73;656;-76
2023/11/01 09:47:27;;;;;;;;;;;19.90;54.60;;;;;;1604416;73;1922;-77
2023/11/01 09:49:30;;;;;;;;;;;19.90;54.60;;;;;;1606471;73;1203;-77
2023/11/01 09:51:32;;;;;;;;;;;19.90;54.60;;;;;;1601517;73;812;-77
2023/11/01 09:53:35;;;;;;;;;;;19.90;54.60;;;;;;1595393;73;705;-77
2023/11/01 09:55:37;;;;;;;;;;;19.90;54.70;;;;;;1596487;72;1681;-77
2023/11/01 09:57:39;;;;;;;;;;;19.90;54.60;;;;;;1602685;72;735;-77
2023/11/01 09:59:40;;;;;;;;;;;19.90;54.60;;;;;;1602794;73;1160;-77
2023/11/01 10:01:43;;;;;;;;;;;19.90;54.60;;;;;;1597208;73;754;-78
2023/11/01 10:03:45;;;;;;;;;;;19.90;54.70;;;;;;1602481;73;668;-76
2023/11/01 10:05:46;;;;;;;;;;;19.90;54.60;;;;;;1600793;73;805;-77
2023/11/01 10:07:48;;;;;;;;;;;19.90;54.60;;;;;;1605558;73;1928;-77
2023/11/01 10:09:50;;;;;;;;;;;19.90;54.60;;;;;;1597349;73;1655;-75
2023/11/01 10:11:52;;;;;;;;;;;19.90;54.60;;;;;;1608445;73;723;-78
2023/11/01 10:13:54;;;;;;;;;;;19.90;54.60;;;;;;1591648;73;758;-77
2023/11/01 10:15:56;;;;;;;;;;;19.90;54.60;;;;;;1607271;73;722;-77
2023/11/01 10:17:58;;;;;;;;;;;19.90;54.60;;;;;;1593268;73;738;-77
2023/11/01 10:20:00;;;;;;;;;;;19.90;54.60;;;;;;1598720;73;1152;-77
2023/11/01 10:22:02;;;;;;;;;;;19.90;54.60;;;;;;1590793;73;1461;-77
2023/11/01 10:24:06;;;;;;;;;;;19.90;54.60;;;;;;1601303;73;718;-77
2023/11/01 10:26:08;;;;;;;;;;;19.80;54.50;;;;;;1604659;73;1102;-77
2023/11/01 10:28:11;;;;;;;;;;;19.90;54.60;;;;;;1605630;72;1906;-78
2023/11/01 10:30:13;;;;;;;;;;;19.90;54.60;;;;;;1597637;73;1159;-77
2023/11/01 10:32:15;;;;;;;;;;;19.90;54.60;;;;;;1572537;74;725;-77
2023/11/01 10:34:17;;;;;;;;;;;19.90;54.60;;;;;;1604717;73;686;-76
2023/11/01 10:36:19;;;;;;;;;;;19.90;54.60;;;;;;1589847;73;1506;-76
2023/11/01 10:38:21;;;;;;;;;;;19.90;54.60;;;;;;1600590;73;686;-77
2023/11/01 10:40:23;;;;;;;;;;;19.90;54.60;;;;;;1595735;73;1197;-76
2023/11/01 10:42:25;;;;;;;;;;;19.90;54.60;;;;;;1599791;73;723;-77
2023/11/01 10:44:27;;;;;;;;;;;19.90;54.60;;;;;;1603936;73;704;-77
2023/11/01 10:46:29;;;;;;;;;;;19.90;54.70;;;;;;1597906;73;735;-77
2023/11/01 10:48:31;;;;;;;;;;;19.90;54.60;;;;;;1595716;73;1926;-77
2023/11/01 10:50:34;;;;;;;;;;;19.90;54.60;;;;;;1601361;73;1381;-76
2023/11/01 10:52:36;;;;;;;;;;;19.90;54.60;;;;;;1599620;73;778;-77
2023/11/01 10:54:38;;;;;;;;;;;20.00;54.60;;;;;;1595987;73;597;-76
2023/11/01 10:56:39;;;;;;;;;;;19.90;54.60;;;;;;1604361;73;699;-76
2023/11/01 10:58:43;;;;;;;;;;;19.90;54.60;;;;;;1602750;73;726;-77
2023/11/01 11:00:46;;;;;;;;;;;19.90;54.60;;;;;;1601458;72;1166;-76
2023/11/01 11:02:52;;;;;;;;;;;19.90;54.60;;;;;;1601413;73;1478;-76
2023/11/01 11:04:59;;;;;;;;;;;19.90;54.60;;;;;;1600066;73;1623;-76
2023/11/01 11:07:18;;;;;;;;;;;19.90;54.60;;;;;;1604499;73;707;-76
2023/11/01 11:09:23;;;;;;;;;;;19.90;54.60;;;;;;1600841;73;1906;-76
2023/11/01 11:11:25;;;;;;;;;;;19.90;54.60;;;;;;1606580;73;762;-77
2023/11/01 11:13:28;;;;;;;;;;;19.90;54.60;;;;;;1595421;73;799;-77
2023/11/01 11:15:59;;;;;;;;;;;19.90;54.60;;;;;;1595436;73;697;-75
2023/11/01 11:18:06;;;;;;;;;;;19.90;54.60;;;;;;1597033;73;1143;-76
2023/11/01 11:20:12;;;;;;;;;;;19.90;54.60;;;;;;1607244;73;1897;-76
2023/11/01 11:22:15;;;;;;;;;;;19.90;54.60;;;;;;1602031;73;689;-76
2023/11/01 11:24:19;;;;;;;;;;;19.90;54.60;;;;;;1601498;73;685;-77
2023/11/01 11:26:22;;;;;;;;;;;19.80;54.50;;;;;;1566219;73;1044;-74
2023/11/01 11:28:35;;;;;;;;;;;19.90;54.60;;;;;;1591809;73;1950;-77
2023/11/01 11:30:47;;;;;;;;;;;19.90;54.70;;;;;;1601759;73;1128;-77
2023/11/01 11:32:49;;;;;;;;;;;19.90;54.60;;;;;;1597137;72;1572;-77
2023/11/01 11:34:51;;;;;;;;;;;19.90;54.70;;;;;;1568223;74;1159;-75
2023/11/01 11:37:11;;;;;;;;;;;19.90;54.70;;;;;;1594913;73;795;-77
2023/11/01 11:39:12;;;;;;;;;;;19.90;54.70;;;;;;1598401;73;1149;-77
2023/11/01 11:41:15;;;;;;;;;;;19.90;54.70;;;;;;1595476;73;1198;-77
2023/11/01 11:43:16;;;;;;;;;;;20.00;54.60;;;;;;1597669;73;744;-77
2023/11/01 11:45:23;;;;;;;;;;;19.90;54.70;;;;;;1596621;73;697;-76
2023/11/01 11:47:31;;;;;;;;;;;19.90;54.70;;;;;;1596119;72;1591;-75
2023/11/01 11:49:37;;;;;;;;;;;19.90;54.60;;;;;;1598678;72;1910;-76
2023/11/01 11:51:37;;;;;;;;;;;19.90;54.70;;;;;;1595283;73;1185;-77
2023/11/01 11:53:40;;;;;;;;;;;19.90;54.70;;;;;;1595221;73;649;-76
2023/11/01 11:55:46;;;;;;;;;;;19.90;54.70;;;;;;1605811;73;714;-76
2023/11/01 11:57:47;;;;;;;;;;;19.90;54.70;;;;;;1598443;72;747;-77
2023/11/01 11:59:49;;;;;;;;;;;19.90;54.70;;;;;;1606697;73;1116;-76
2023/11/01 12:01:52;;;;;;;;;;;19.90;54.70;;;;;;1601955;73;1565;-75
2023/11/01 12:03:58;;;;;;;;;;;19.90;54.70;;;;;;1602814;73;713;-77
2023/11/01 12:06:00;;;;;;;;;;;20.00;54.70;;;;;;1595149;73;981;-77
2023/11/01 12:08:03;;;;;;;;;;;19.90;54.70;;;;;;1594450;73;1916;-77
2023/11/01 12:10:05;;;;;;;;;;;19.90;54.70;;;;;;1599978;73;1156;-77